createdAt,value
2023-03-16T00:00:52.934Z,9.22
2023-03-16T00:03:20.438Z,9.29
2023-03-16T00:05:48.441Z,9.31
2023-03-16T00:08:15.956Z,9.28
2023-03-16T00:10:42.722Z,9.06
2023-03-16T00:13:09.195Z,9.12
2023-03-16T00:15:35.637Z,9.11
2023-03-16T00:18:02.145Z,9.05
2023-03-16T00:20:29.162Z,9.10
2023-03-16T00:22:55.775Z,8.98
2023-03-16T00:25:22.323Z,8.81
2023-03-16T00:27:48.763Z,8.81
2023-03-16T00:30:15.309Z,8.58
2023-03-16T00:32:41.907Z,8.85
2023-03-16T00:35:09.795Z,8.85
2023-03-16T00:37:37.267Z,8.78
2023-03-16T00:40:03.951Z,8.83
2023-03-16T00:42:31.021Z,8.80
2023-03-16T00:44:58.690Z,8.78
2023-03-16T00:47:27.433Z,8.74
2023-03-16T00:49:54.658Z,8.70
2023-03-16T00:52:21.862Z,8.53
2023-03-16T00:54:48.376Z,8.48
2023-03-16T00:57:17.873Z,8.41
2023-03-16T00:59:45.481Z,8.42
2023-03-16T01:02:12.912Z,8.39
2023-03-16T01:04:39.877Z,8.28
2023-03-16T01:07:08.604Z,8.15
2023-03-16T01:09:35.158Z,8.16
2023-03-16T01:12:01.625Z,8.28
2023-03-16T01:14:28.102Z,8.40
2023-03-16T01:16:54.610Z,8.32
2023-03-16T01:19:21.141Z,8.15
2023-03-16T01:21:47.633Z,8.01
2023-03-16T01:24:14.230Z,8.15
2023-03-16T01:26:40.747Z,8.23
2023-03-16T01:29:07.220Z,8.25
2023-03-16T01:31:33.690Z,8.13
2023-03-16T01:34:00.154Z,7.93
2023-03-16T01:36:26.700Z,7.65
2023-03-16T01:38:53.181Z,7.46
2023-03-16T01:41:19.681Z,7.28
2023-03-16T01:43:46.250Z,7.52
2023-03-16T01:46:19.891Z,7.58
2023-03-16T01:49:15.261Z,7.66
2023-03-16T01:51:56.279Z,7.81
2023-03-16T01:54:33.214Z,7.94
2023-03-16T01:57:15.391Z,8.12
2023-03-16T01:59:47.266Z,8.17
2023-03-16T02:02:19.049Z,8.22
2023-03-16T02:05:16.806Z,8.28
2023-03-16T02:08:02.845Z,8.22
2023-03-16T02:10:30.713Z,8.26
2023-03-16T02:12:58.101Z,8.24
2023-03-16T02:15:24.592Z,8.31
2023-03-16T02:17:51.466Z,8.34
2023-03-16T02:20:28.141Z,8.30
2023-03-16T02:22:55.379Z,8.38
2023-03-16T02:25:36.745Z,8.25
2023-03-16T02:28:17.050Z,8.29
2023-03-16T02:30:44.000Z,8.31
2023-03-16T02:33:13.164Z,8.29
2023-03-16T02:35:39.848Z,8.30
2023-03-16T02:38:06.353Z,8.21
2023-03-16T02:40:34.988Z,8.07
2023-03-16T02:43:06.722Z,7.98
2023-03-16T02:45:41.791Z,7.96
2023-03-16T02:48:19.809Z,7.76
2023-03-16T02:50:52.955Z,7.91
2023-03-16T02:53:19.793Z,7.75
2023-03-16T02:55:46.707Z,7.95
2023-03-16T02:58:14.592Z,7.85
2023-03-16T03:00:41.377Z,7.73
2023-03-16T03:03:08.761Z,7.79
2023-03-16T03:05:36.208Z,7.84
2023-03-16T03:08:03.496Z,7.80
2023-03-16T03:10:30.116Z,7.87
2023-03-16T03:12:56.720Z,7.87
2023-03-16T03:15:23.764Z,7.75
2023-03-16T03:17:51.217Z,7.79
2023-03-16T03:20:17.893Z,7.83
2023-03-16T03:22:46.960Z,7.89
2023-03-16T03:25:16.392Z,7.74
2023-03-16T03:27:44.332Z,7.67
2023-03-16T03:30:15.350Z,7.66
2023-03-16T03:32:44.097Z,7.59
2023-03-16T03:35:14.072Z,7.52
2023-03-16T03:37:42.320Z,7.49
2023-03-16T03:40:11.498Z,7.58
2023-03-16T03:42:39.142Z,7.58
2023-03-16T03:45:06.156Z,7.40
2023-03-16T03:47:32.675Z,7.56
2023-03-16T03:49:59.162Z,7.39
2023-03-16T03:52:25.605Z,7.61
2023-03-16T03:54:52.093Z,7.60
2023-03-16T03:57:20.818Z,7.57
2023-03-16T03:59:48.255Z,7.44
2023-03-16T04:02:15.698Z,7.58
2023-03-16T04:04:42.273Z,7.63
2023-03-16T04:07:08.779Z,7.68
2023-03-16T04:09:35.487Z,7.69
2023-03-16T04:12:03.962Z,7.63
2023-03-16T04:14:32.012Z,7.58
2023-03-16T04:16:58.594Z,7.62
2023-03-16T04:19:25.837Z,7.57
2023-03-16T04:21:52.598Z,7.38
2023-03-16T04:24:19.367Z,7.27
2023-03-16T04:26:46.458Z,7.42
2023-03-16T04:29:16.311Z,7.45
2023-03-16T04:31:42.764Z,7.33
2023-03-16T04:34:09.800Z,7.40
2023-03-16T04:36:36.307Z,7.41
2023-03-16T04:39:02.970Z,7.35
2023-03-16T04:41:29.451Z,7.39
2023-03-16T04:43:55.969Z,7.57
2023-03-16T04:46:22.499Z,7.58
2023-03-16T04:48:49.069Z,7.58
2023-03-16T04:51:15.526Z,7.43
2023-03-16T04:53:42.060Z,7.52
2023-03-16T04:56:08.628Z,7.36
2023-03-16T04:58:35.138Z,7.51
2023-03-16T05:01:01.584Z,7.52
2023-03-16T05:03:28.099Z,7.42
2023-03-16T05:05:54.638Z,7.35
2023-03-16T05:08:21.136Z,6.74
2023-03-16T05:10:47.741Z,6.20
2023-03-16T05:13:14.236Z,5.87
2023-03-16T05:15:40.715Z,6.04
2023-03-16T05:18:07.206Z,5.91
2023-03-16T05:20:33.738Z,6.21
2023-03-16T05:23:00.214Z,6.23
2023-03-16T05:25:26.685Z,6.38
2023-03-16T05:27:53.839Z,6.56
2023-03-16T05:30:20.382Z,6.43
2023-03-16T05:32:46.910Z,6.45
2023-03-16T05:35:14.133Z,6.64
2023-03-16T05:37:41.844Z,6.79
2023-03-16T05:40:11.336Z,6.67
2023-03-16T05:42:37.826Z,6.69
2023-03-16T05:45:04.761Z,6.64
2023-03-16T05:47:31.195Z,6.75
2023-03-16T05:49:57.699Z,6.86
2023-03-16T05:52:24.187Z,6.73
2023-03-16T05:54:50.722Z,6.43
2023-03-16T05:57:17.217Z,6.34
2023-03-16T05:59:43.693Z,6.49
2023-03-16T06:02:10.882Z,6.79
2023-03-16T06:04:37.388Z,7.10
2023-03-16T06:07:03.949Z,7.24
2023-03-16T06:09:30.441Z,7.09
2023-03-16T06:11:56.955Z,7.30
2023-03-16T06:14:23.428Z,7.50
2023-03-16T06:16:50.097Z,7.63
2023-03-16T06:19:16.714Z,7.64
2023-03-16T06:21:43.254Z,7.56
2023-03-16T06:24:09.857Z,7.37
2023-03-16T06:26:37.133Z,7.65
2023-03-16T06:29:04.061Z,7.34
2023-03-16T06:31:33.320Z,7.58
2023-03-16T06:34:00.429Z,7.54
2023-03-16T06:36:27.311Z,7.64
2023-03-16T06:38:53.783Z,7.84
2023-03-16T06:41:20.266Z,8.00
2023-03-16T06:43:47.155Z,8.04
2023-03-16T06:46:13.771Z,8.19
2023-03-16T06:48:40.276Z,8.27
2023-03-16T06:51:06.782Z,8.44
2023-03-16T06:53:33.296Z,8.54
2023-03-16T06:55:59.760Z,8.63
2023-03-16T06:58:26.305Z,8.75
2023-03-16T07:00:52.808Z,8.53
2023-03-16T07:03:19.368Z,8.75
2023-03-16T07:05:47.441Z,8.87
2023-03-16T07:08:13.911Z,9.07
2023-03-16T07:10:40.885Z,9.19
2023-03-16T07:13:07.333Z,9.24
2023-03-16T07:15:33.811Z,9.31
2023-03-16T07:18:00.301Z,9.47
2023-03-16T07:20:27.022Z,9.37
2023-03-16T07:22:53.843Z,9.56
2023-03-16T07:25:20.354Z,9.68
2023-03-16T07:27:46.856Z,9.45
2023-03-16T07:30:13.708Z,9.60
2023-03-16T07:32:41.768Z,9.66
2023-03-16T07:35:09.941Z,9.71
2023-03-16T07:37:36.446Z,9.45
2023-03-16T07:40:04.615Z,9.54
2023-03-16T07:42:31.118Z,9.74
2023-03-16T07:44:57.698Z,9.92
2023-03-16T07:47:26.401Z,9.87
2023-03-16T07:49:53.166Z,9.84
2023-03-16T07:52:19.660Z,10.08
2023-03-16T07:54:46.128Z,10.09
2023-03-16T07:57:12.666Z,10.09
2023-03-16T07:59:39.177Z,10.26
2023-03-16T08:02:05.855Z,10.43
2023-03-16T08:04:32.436Z,10.35
2023-03-16T08:06:58.894Z,10.34
2023-03-16T08:09:26.519Z,10.05
2023-03-16T08:11:53.478Z,10.14
2023-03-16T08:14:20.162Z,10.37
2023-03-16T08:16:46.646Z,10.34
2023-03-16T08:19:13.148Z,10.17
2023-03-16T08:21:49.249Z,10.52
2023-03-16T08:24:26.189Z,10.62
2023-03-16T08:26:52.905Z,9.97
2023-03-16T08:29:19.646Z,10.16
2023-03-16T08:31:46.134Z,10.15
2023-03-16T08:34:12.605Z,10.49
2023-03-16T08:36:39.450Z,10.48
2023-03-16T08:39:07.590Z,10.39
2023-03-16T08:41:34.335Z,10.55
2023-03-16T08:44:00.962Z,10.81
2023-03-16T08:46:27.608Z,10.90
2023-03-16T08:48:54.172Z,11.03
2023-03-16T08:51:20.698Z,10.96
2023-03-16T08:53:47.218Z,11.32
2023-03-16T08:56:14.602Z,11.20
2023-03-16T08:58:42.630Z,11.49
2023-03-16T09:01:09.786Z,11.66
2023-03-16T09:03:36.278Z,11.74
2023-03-16T09:06:06.205Z,11.40
2023-03-16T09:08:33.289Z,11.22
2023-03-16T09:11:05.813Z,11.22
2023-03-16T09:13:32.336Z,11.34
2023-03-16T09:15:58.863Z,11.63
2023-03-16T09:18:26.036Z,11.59
2023-03-16T09:21:12.767Z,11.32
2023-03-16T09:23:40.093Z,11.49
2023-03-16T09:26:07.230Z,11.57
2023-03-16T09:28:35.916Z,11.58
2023-03-16T09:31:02.671Z,11.53
2023-03-16T09:33:30.037Z,11.65
2023-03-16T09:35:56.618Z,11.70
2023-03-16T09:38:23.397Z,11.60
2023-03-16T09:40:59.144Z,11.64
2023-03-16T09:43:47.037Z,11.49
2023-03-16T09:46:36.282Z,11.48
2023-03-16T09:49:02.925Z,11.62
2023-03-16T09:52:04.633Z,11.66
2023-03-16T09:54:50.706Z,11.72
2023-03-16T09:57:30.562Z,11.58
2023-03-16T10:00:14.060Z,11.81
2023-03-16T10:03:05.389Z,11.64
2023-03-16T10:05:33.736Z,11.89
2023-03-16T10:08:25.065Z,11.80
2023-03-16T10:11:24.992Z,11.96
2023-03-16T10:14:12.469Z,12.16
2023-03-16T10:16:49.428Z,12.32
2023-03-16T10:19:29.942Z,12.31
2023-03-16T10:21:59.121Z,12.48
2023-03-16T10:24:52.859Z,12.34
2023-03-16T10:27:28.318Z,12.48
2023-03-16T10:29:54.825Z,12.70
2023-03-16T10:32:21.316Z,12.62
2023-03-16T10:35:00.433Z,12.34
2023-03-16T10:37:30.143Z,12.20
2023-03-16T10:39:56.942Z,12.32
2023-03-16T10:42:24.669Z,12.27
2023-03-16T10:44:57.669Z,12.02
2023-03-16T10:47:29.938Z,11.81
2023-03-16T10:49:56.621Z,12.02
2023-03-16T10:52:29.006Z,11.69
2023-03-16T10:55:28.323Z,12.05
2023-03-16T10:57:56.149Z,12.03
2023-03-16T11:00:27.586Z,12.18
2023-03-16T11:02:56.267Z,12.16
2023-03-16T11:05:27.728Z,11.97
2023-03-16T11:08:21.935Z,12.01
2023-03-16T11:10:56.424Z,12.31
2023-03-16T11:13:30.986Z,12.19
2023-03-16T11:16:17.740Z,11.86
2023-03-16T11:18:49.247Z,12.25
2023-03-16T11:21:27.373Z,12.05
2023-03-16T11:23:56.444Z,11.90
2023-03-16T11:26:32.654Z,11.79
2023-03-16T11:29:21.946Z,12.10
2023-03-16T11:31:59.892Z,12.04
2023-03-16T11:34:30.427Z,12.05
2023-03-16T11:37:14.268Z,11.90
2023-03-16T11:40:07.141Z,11.63
2023-03-16T11:42:38.633Z,11.78
2023-03-16T11:45:17.206Z,11.91
2023-03-16T11:48:07.470Z,12.06
2023-03-16T11:50:50.060Z,12.16
2023-03-16T11:53:30.969Z,12.17
2023-03-16T11:56:06.330Z,12.43
2023-03-16T11:59:03.466Z,12.45
2023-03-16T12:02:00.722Z,12.17
2023-03-16T12:04:33.550Z,11.99
2023-03-16T12:07:19.729Z,11.64
2023-03-16T12:10:18.257Z,11.61
2023-03-16T12:13:11.191Z,11.33
2023-03-16T12:15:43.139Z,11.69
2023-03-16T12:18:39.339Z,11.83
2023-03-16T12:21:33.832Z,11.65
2023-03-16T12:24:05.836Z,11.76
2023-03-16T12:26:39.006Z,11.95
2023-03-16T12:29:23.324Z,12.26
2023-03-16T12:32:05.799Z,12.17
2023-03-16T12:34:55.515Z,12.16
2023-03-16T12:37:40.948Z,12.26
2023-03-16T12:40:39.217Z,12.53
2023-03-16T12:43:38.910Z,12.33
2023-03-16T12:46:14.793Z,12.64
2023-03-16T12:49:04.665Z,12.88
2023-03-16T12:51:38.815Z,13.10
2023-03-16T12:54:06.221Z,13.15
2023-03-16T12:56:36.275Z,13.49
2023-03-16T12:59:06.182Z,13.55
2023-03-16T13:01:42.909Z,13.54
2023-03-16T13:04:34.720Z,14.07
2023-03-16T13:07:06.423Z,14.29
2023-03-16T13:09:40.053Z,14.18
2023-03-16T13:12:06.647Z,14.57
2023-03-16T13:14:39.858Z,14.85
2023-03-16T13:17:12.333Z,15.19
2023-03-16T13:19:39.941Z,15.09
2023-03-16T13:22:26.924Z,14.99
2023-03-16T13:24:59.208Z,15.51
2023-03-16T13:27:33.437Z,15.67
2023-03-16T13:30:02.807Z,15.77
2023-03-16T13:32:33.611Z,15.81
2023-03-16T13:35:04.566Z,16.28
2023-03-16T13:37:31.509Z,16.40
2023-03-16T13:40:01.132Z,16.43
2023-03-16T13:42:32.599Z,16.30
2023-03-16T13:45:12.621Z,16.77
2023-03-16T13:47:42.973Z,16.97
2023-03-16T13:50:15.083Z,17.03
2023-03-16T13:52:42.862Z,17.24
2023-03-16T13:55:21.145Z,17.39
2023-03-16T13:57:48.535Z,17.82
2023-03-16T14:00:20.397Z,17.73
2023-03-16T14:02:52.054Z,17.88
2023-03-16T14:05:27.178Z,18.02
2023-03-16T14:07:57.344Z,18.38
2023-03-16T14:10:31.305Z,18.24
2023-03-16T14:13:07.508Z,17.99
2023-03-16T14:15:37.439Z,18.33
2023-03-16T14:18:17.724Z,18.36
2023-03-16T14:20:44.619Z,18.17
2023-03-16T14:23:20.689Z,18.30
2023-03-16T14:25:52.025Z,18.28
2023-03-16T14:28:22.027Z,18.80
2023-03-16T14:30:54.525Z,19.16
2023-03-16T14:33:33.446Z,19.22
2023-03-16T14:36:11.134Z,19.48
2023-03-16T14:38:37.646Z,19.95
2023-03-16T14:41:12.133Z,20.51
2023-03-16T14:44:00.426Z,21.05
2023-03-16T14:46:32.917Z,21.57
2023-03-16T14:49:21.525Z,22.19
2023-03-16T14:51:51.560Z,22.30
2023-03-16T14:54:20.968Z,22.74
2023-03-16T14:56:50.414Z,23.15
2023-03-16T14:59:17.279Z,23.54
2023-03-16T15:01:44.578Z,23.71
2023-03-16T15:04:17.358Z,23.93
2023-03-16T15:06:44.032Z,23.75
2023-03-16T15:09:32.620Z,23.99
2023-03-16T15:11:59.143Z,23.80
2023-03-16T15:14:25.660Z,23.73
2023-03-16T15:17:04.147Z,23.68
2023-03-16T15:19:30.657Z,23.86
2023-03-16T15:22:01.327Z,23.92
2023-03-16T15:24:27.896Z,23.74
2023-03-16T15:26:55.001Z,23.80
2023-03-16T15:29:21.487Z,23.90
2023-03-16T15:31:48.198Z,23.81
2023-03-16T15:34:14.762Z,23.67
2023-03-16T15:36:41.259Z,23.52
2023-03-16T15:39:20.984Z,23.62
2023-03-16T15:41:48.223Z,23.72
2023-03-16T15:44:14.898Z,23.53
2023-03-16T15:46:41.527Z,23.29
2023-03-16T15:49:08.089Z,23.19
2023-03-16T15:51:34.690Z,23.10
2023-03-16T15:54:05.808Z,22.79
2023-03-16T15:56:47.497Z,22.56
2023-03-16T15:59:17.855Z,22.24
2023-03-16T16:01:47.077Z,21.73
2023-03-16T16:04:21.658Z,21.44
2023-03-16T16:06:50.213Z,20.69
2023-03-16T16:09:16.972Z,20.69
2023-03-16T16:11:44.140Z,20.42
2023-03-16T16:14:15.917Z,20.38
2023-03-16T16:16:45.304Z,20.34
2023-03-16T16:19:16.025Z,20.39
2023-03-16T16:21:42.962Z,20.15
2023-03-16T16:24:10.667Z,20.10
2023-03-16T16:26:49.934Z,19.89
2023-03-16T16:29:23.108Z,19.52
2023-03-16T16:31:50.222Z,19.44
2023-03-16T16:34:20.152Z,19.25
2023-03-16T16:36:47.152Z,19.21
2023-03-16T16:39:14.100Z,19.13
2023-03-16T16:41:43.013Z,19.01
2023-03-16T16:44:27.240Z,18.81
2023-03-16T16:46:54.842Z,18.57
2023-03-16T16:49:29.993Z,18.47
2023-03-16T16:51:57.646Z,18.50
2023-03-16T16:54:29.586Z,18.47
2023-03-16T16:57:01.382Z,18.50
2023-03-16T16:59:36.521Z,18.52
2023-03-16T17:02:22.410Z,18.64
2023-03-16T17:04:48.918Z,18.58
2023-03-16T17:07:15.417Z,18.42
2023-03-16T17:09:41.898Z,18.29
2023-03-16T17:12:18.247Z,18.10
2023-03-16T17:14:44.767Z,18.09
2023-03-16T17:17:15.127Z,17.97
2023-03-16T17:19:41.721Z,17.81
2023-03-16T17:22:21.318Z,17.66
2023-03-16T17:24:47.794Z,17.56
2023-03-16T17:27:15.298Z,17.21
2023-03-16T17:29:41.983Z,17.16
2023-03-16T17:32:19.852Z,16.91
2023-03-16T17:34:46.398Z,16.87
2023-03-16T17:37:18.206Z,16.68
2023-03-16T17:39:44.803Z,16.29
2023-03-16T17:42:17.066Z,16.27
2023-03-16T17:44:46.689Z,16.24
2023-03-16T17:47:20.708Z,15.84
2023-03-16T17:49:48.232Z,15.97
2023-03-16T17:52:16.919Z,15.94
2023-03-16T17:54:44.600Z,15.89
2023-03-16T17:57:32.261Z,15.84
2023-03-16T18:00:01.412Z,15.80
2023-03-16T18:02:44.195Z,15.71
2023-03-16T18:05:23.416Z,15.68
2023-03-16T18:07:50.780Z,15.62
2023-03-16T18:10:24.088Z,15.56
2023-03-16T18:13:07.954Z,15.33
2023-03-16T18:15:35.612Z,15.22
2023-03-16T18:18:04.947Z,15.16
2023-03-16T18:20:34.119Z,15.10
2023-03-16T18:23:03.120Z,15.08
2023-03-16T18:25:31.382Z,14.99
2023-03-16T18:27:57.949Z,14.92
2023-03-16T18:30:25.688Z,14.85
2023-03-16T18:32:53.021Z,14.83
2023-03-16T18:35:20.376Z,14.79
2023-03-16T18:37:47.519Z,14.73
2023-03-16T18:40:16.798Z,14.56
2023-03-16T18:42:43.719Z,14.52
2023-03-16T18:45:12.731Z,14.50
2023-03-16T18:47:54.178Z,14.48
2023-03-16T18:50:25.875Z,14.38
2023-03-16T18:52:54.122Z,14.39
2023-03-16T18:55:25.416Z,14.33
2023-03-16T18:57:52.593Z,14.18
2023-03-16T19:00:23.161Z,14.11
2023-03-16T19:02:56.167Z,14.07
2023-03-16T19:05:35.630Z,14.07
2023-03-16T19:08:04.532Z,14.04
2023-03-16T19:10:35.217Z,13.97
2023-03-16T19:13:02.474Z,13.84
2023-03-16T19:15:32.665Z,13.87
2023-03-16T19:17:59.503Z,13.85
2023-03-16T19:20:32.313Z,13.76
2023-03-16T19:23:05.868Z,13.74
2023-03-16T19:25:37.065Z,13.70
2023-03-16T19:28:05.730Z,13.57
2023-03-16T19:30:35.468Z,13.62
2023-03-16T19:33:03.053Z,13.48
2023-03-16T19:35:48.450Z,13.38
2023-03-16T19:38:16.352Z,13.47
2023-03-16T19:40:42.947Z,13.43
2023-03-16T19:43:17.121Z,13.25
2023-03-16T19:45:44.522Z,13.25
2023-03-16T19:48:18.635Z,13.22
2023-03-16T19:50:45.277Z,13.08
2023-03-16T19:53:23.766Z,13.03
2023-03-16T19:55:53.086Z,12.97
2023-03-16T19:58:49.700Z,12.89
2023-03-16T20:01:20.017Z,12.89
2023-03-16T20:03:48.606Z,12.73
2023-03-16T20:06:17.530Z,12.57
2023-03-16T20:08:45.185Z,12.55
2023-03-16T20:11:31.901Z,12.53
2023-03-16T20:14:00.138Z,12.55
2023-03-16T20:16:32.949Z,12.42
2023-03-16T20:19:13.307Z,12.50
2023-03-16T20:21:39.796Z,12.37
2023-03-16T20:24:16.878Z,12.36
2023-03-16T20:26:45.346Z,12.24
2023-03-16T20:29:27.160Z,12.16
2023-03-16T20:31:53.952Z,12.28
2023-03-16T20:34:27.583Z,12.24
2023-03-16T20:36:54.288Z,12.28
2023-03-16T20:39:20.764Z,12.24
2023-03-16T20:41:48.037Z,12.18
2023-03-16T20:44:19.528Z,12.13
2023-03-16T20:46:46.817Z,12.04
2023-03-16T20:49:22.310Z,12.09
2023-03-16T20:51:49.989Z,12.12
2023-03-16T20:54:17.027Z,12.02
2023-03-16T20:56:43.775Z,11.98
2023-03-16T20:59:17.947Z,12.00
2023-03-16T21:01:44.472Z,12.06
2023-03-16T21:04:20.210Z,11.95
2023-03-16T21:06:46.846Z,12.05
2023-03-16T21:09:13.368Z,11.99
2023-03-16T21:11:40.700Z,11.79
2023-03-16T21:14:16.707Z,11.74
2023-03-16T21:16:43.757Z,11.77
2023-03-16T21:19:22.374Z,11.79
2023-03-16T21:21:49.636Z,11.64
2023-03-16T21:24:16.127Z,11.80
2023-03-16T21:26:44.885Z,11.78
2023-03-16T21:29:17.682Z,11.68
2023-03-16T21:31:44.265Z,11.77
2023-03-16T21:34:30.491Z,11.66
2023-03-16T21:36:56.992Z,11.60
2023-03-16T21:39:23.461Z,11.61
2023-03-16T21:41:49.967Z,11.56
2023-03-16T21:44:16.698Z,11.50
2023-03-16T21:46:43.363Z,11.62
2023-03-16T21:49:11.973Z,11.64
2023-03-16T21:51:40.454Z,11.59
2023-03-16T21:54:13.494Z,11.53
2023-03-16T21:56:40.600Z,11.38
2023-03-16T21:59:07.251Z,11.35
2023-03-16T22:01:40.877Z,11.51
2023-03-16T22:04:16.879Z,11.45
2023-03-16T22:06:44.819Z,11.51
2023-03-16T22:09:20.271Z,11.48
2023-03-16T22:11:46.836Z,11.35
2023-03-16T22:14:13.563Z,11.23
2023-03-16T22:16:41.252Z,11.20
2023-03-16T22:19:12.471Z,11.37
2023-03-16T22:21:44.166Z,11.30
2023-03-16T22:24:30.882Z,11.34
2023-03-16T22:26:57.369Z,11.23
2023-03-16T22:29:26.156Z,11.26
2023-03-16T22:31:57.501Z,11.33
2023-03-16T22:34:53.243Z,11.32
2023-03-16T22:37:24.114Z,11.40
2023-03-16T22:39:50.903Z,11.43
2023-03-16T22:42:31.849Z,11.51
2023-03-16T22:44:58.396Z,11.38
2023-03-16T22:47:29.997Z,11.42
2023-03-16T22:49:56.491Z,11.39
2023-03-16T22:52:30.160Z,11.37
2023-03-16T22:54:59.995Z,11.10
2023-03-16T22:57:27.936Z,11.27
2023-03-16T22:59:55.113Z,11.33
2023-03-16T23:02:25.615Z,11.20
2023-03-16T23:04:52.091Z,11.20
2023-03-16T23:07:18.592Z,11.27
2023-03-16T23:09:45.055Z,11.10
2023-03-16T23:12:19.357Z,11.10
2023-03-16T23:14:45.921Z,11.16
2023-03-16T23:17:17.109Z,11.17
2023-03-16T23:19:43.626Z,11.23
2023-03-16T23:22:11.110Z,11.26
2023-03-16T23:24:37.813Z,11.30
2023-03-16T23:27:13.684Z,11.27
2023-03-16T23:29:40.794Z,11.26
2023-03-16T23:32:09.460Z,11.18
2023-03-16T23:34:35.920Z,11.23
2023-03-16T23:37:02.413Z,11.17
2023-03-16T23:39:30.066Z,11.07
2023-03-16T23:41:56.617Z,11.17
2023-03-16T23:44:27.154Z,11.21
2023-03-16T23:46:54.092Z,11.08
2023-03-16T23:49:25.103Z,10.97
2023-03-16T23:51:53.186Z,10.97
2023-03-16T23:54:23.177Z,11.05
2023-03-16T23:56:51.203Z,10.94
2023-03-16T23:59:18.078Z,10.91
